createdAt,value
2018-06-29T00:00:13.348Z,99023.56
2018-06-29T00:02:42.093Z,99023.64
2018-06-29T00:05:10.755Z,99019.86
2018-06-29T00:07:39.436Z,99016.05
2018-06-29T00:10:08.266Z,99013.19
2018-06-29T00:12:36.910Z,99022.34
2018-06-29T00:15:05.840Z,99018.80
2018-06-29T00:17:34.506Z,99015.84
2018-06-29T00:20:03.527Z,99013.25
2018-06-29T00:22:32.194Z,99005.93
2018-06-29T00:25:00.897Z,99006.59
2018-06-29T00:27:29.550Z,99004.73
2018-06-29T00:29:58.239Z,98999.83
2018-06-29T00:32:26.910Z,99000.19
2018-06-29T00:34:55.831Z,98995.91
2018-06-29T00:37:24.238Z,99002.33
2018-06-29T00:39:52.875Z,98992.70
2018-06-29T00:42:21.606Z,98995.46
2018-06-29T00:44:50.286Z,99005.47
2018-06-29T00:47:19.059Z,99009.00
2018-06-29T00:49:47.798Z,99005.29
2018-06-29T00:52:16.518Z,99003.52
2018-06-29T00:54:45.209Z,99001.02
2018-06-29T00:57:13.878Z,99003.81
2018-06-29T00:59:42.552Z,99005.22
2018-06-29T01:02:11.236Z,99001.49
2018-06-29T01:04:39.992Z,98988.34
2018-06-29T01:07:08.662Z,98981.48
2018-06-29T01:09:37.322Z,98981.38
2018-06-29T01:12:05.989Z,98983.80
2018-06-29T01:14:34.687Z,98977.02
2018-06-29T01:17:03.474Z,98974.34
2018-06-29T01:19:33.086Z,98977.57
2018-06-29T01:22:01.771Z,98976.37
2018-06-29T01:24:30.571Z,98974.35
2018-06-29T01:26:59.250Z,98988.52
2018-06-29T01:29:27.937Z,98973.78
2018-06-29T01:31:56.604Z,98976.86
2018-06-29T01:34:25.316Z,98975.83
2018-06-29T01:36:54.193Z,98983.16
2018-06-29T01:39:22.930Z,98979.98
2018-06-29T01:41:51.582Z,98972.13
2018-06-29T01:44:26.298Z,98968.67
2018-06-29T01:46:55.055Z,98973.52
2018-06-29T01:49:23.875Z,98979.91
2018-06-29T01:51:52.566Z,98961.83
2018-06-29T01:54:21.278Z,98963.70
2018-06-29T01:56:49.983Z,98959.15
2018-06-29T01:59:18.644Z,98963.59
2018-06-29T02:01:47.846Z,98960.61
2018-06-29T02:04:16.496Z,98949.97
2018-06-29T02:06:45.234Z,98962.66
2018-06-29T02:09:14.118Z,98948.22
2018-06-29T02:11:42.817Z,98941.16
2018-06-29T02:14:11.539Z,98940.62
2018-06-29T02:16:40.196Z,98947.38
2018-06-29T02:19:08.949Z,98939.96
2018-06-29T02:21:37.723Z,98943.94
2018-06-29T02:24:06.611Z,98944.53
2018-06-29T02:26:35.371Z,98946.17
2018-06-29T02:29:04.205Z,98951.86
2018-06-29T02:31:32.914Z,98955.41
2018-06-29T02:34:01.625Z,98947.86
2018-06-29T02:36:30.496Z,98944.98
2018-06-29T02:38:59.122Z,98952.31
2018-06-29T02:41:27.938Z,98944.23
2018-06-29T02:43:56.693Z,98940.06
2018-06-29T02:46:25.446Z,98932.47
2018-06-29T02:48:54.083Z,98935.91
2018-06-29T02:51:28.463Z,98935.33
2018-06-29T02:56:25.842Z,98924.92
2018-06-29T02:58:54.506Z,98926.58
2018-06-29T03:01:23.341Z,98924.89
2018-06-29T03:03:51.964Z,98927.60
2018-06-29T03:06:20.606Z,98923.90
2018-06-29T03:08:49.255Z,98933.37
2018-06-29T03:11:17.871Z,98926.30
2018-06-29T03:13:46.476Z,98915.53
2018-06-29T03:16:15.128Z,98918.78
2018-06-29T03:18:43.709Z,98918.33
2018-06-29T03:21:12.359Z,98917.64
2018-06-29T03:23:41.135Z,98923.40
2018-06-29T03:26:10.039Z,98920.11
2018-06-29T03:28:38.668Z,98926.60
2018-06-29T03:31:07.288Z,98911.09
2018-06-29T03:33:35.965Z,98907.91
2018-06-29T03:36:04.634Z,98904.33
2018-06-29T03:38:33.244Z,98910.77
2018-06-29T03:41:01.884Z,98909.46
2018-06-29T03:43:30.562Z,98907.59
2018-06-29T03:45:59.196Z,98923.95
2018-06-29T03:48:27.850Z,98907.52
2018-06-29T03:50:56.495Z,98912.98
2018-06-29T03:53:26.039Z,98910.58
2018-06-29T03:55:54.617Z,98914.21
2018-06-29T03:58:23.264Z,98911.68
2018-06-29T04:00:51.914Z,98911.74
2018-06-29T04:03:20.609Z,98910.17
2018-06-29T04:05:49.189Z,98910.42
2018-06-29T04:08:17.834Z,98922.63
2018-06-29T04:10:46.455Z,98914.27
2018-06-29T04:13:15.060Z,98924.98
2018-06-29T04:15:43.732Z,98911.07
2018-06-29T04:18:12.350Z,98916.45
2018-06-29T04:20:40.991Z,98912.88
2018-06-29T04:23:09.681Z,98921.95
2018-06-29T04:25:38.347Z,98916.23
2018-06-29T04:28:07.041Z,98909.15
2018-06-29T04:30:35.660Z,98923.12
2018-06-29T04:33:04.255Z,98912.97
2018-06-29T04:35:33.853Z,98907.07
2018-06-29T04:38:02.495Z,98916.86
2018-06-29T04:40:31.777Z,98909.29
2018-06-29T04:43:00.480Z,98910.67
2018-06-29T04:45:29.604Z,98915.68
2018-06-29T04:47:59.097Z,98916.48
2018-06-29T04:50:27.718Z,98906.28
2018-06-29T04:52:56.322Z,98920.23
2018-06-29T04:55:24.997Z,98912.50
2018-06-29T04:57:53.638Z,98918.16
2018-06-29T05:00:22.351Z,98924.23
2018-06-29T05:02:51.037Z,98925.79
2018-06-29T05:05:19.722Z,98929.52
2018-06-29T05:07:48.309Z,98931.63
2018-06-29T05:10:17.280Z,98930.45
2018-06-29T05:12:45.998Z,98926.18
2018-06-29T05:15:14.801Z,98919.19
2018-06-29T05:17:43.469Z,98919.70
2018-06-29T05:20:12.181Z,98925.67
2018-06-29T05:22:40.848Z,98923.81
2018-06-29T05:25:09.526Z,98921.03
2018-06-29T05:27:38.520Z,98921.82
2018-06-29T05:30:07.954Z,98917.09
2018-06-29T05:32:36.616Z,98920.73
2018-06-29T05:35:05.430Z,98912.34
2018-06-29T05:37:34.678Z,98916.25
2018-06-29T05:40:03.385Z,98922.78
2018-06-29T05:42:32.212Z,98920.39
2018-06-29T05:45:00.936Z,98919.64
2018-06-29T05:47:29.759Z,98922.33
2018-06-29T05:49:58.456Z,98939.42
2018-06-29T05:52:27.237Z,98936.89
2018-06-29T05:54:55.955Z,98939.17
2018-06-29T05:57:24.656Z,98941.14
2018-06-29T05:59:53.285Z,98963.64
2018-06-29T06:02:22.051Z,98945.48
2018-06-29T06:04:50.738Z,98942.75
2018-06-29T06:07:19.471Z,98954.03
2018-06-29T06:09:48.242Z,98949.22
2018-06-29T06:12:16.834Z,98939.36
2018-06-29T06:14:46.111Z,98941.53
2018-06-29T06:17:15.400Z,98936.05
2018-06-29T06:19:54.976Z,98933.67
2018-06-29T06:22:23.644Z,98930.73
2018-06-29T06:24:52.312Z,98929.47
2018-06-29T06:27:21.055Z,98928.30
2018-06-29T06:29:49.691Z,98931.66
2018-06-29T06:32:18.395Z,98932.55
2018-06-29T06:34:47.058Z,98927.61
2018-06-29T06:37:15.694Z,98929.80
2018-06-29T06:39:44.340Z,98934.81
2018-06-29T06:42:13.046Z,98922.27
2018-06-29T06:44:42.163Z,98914.57
2018-06-29T06:47:10.915Z,98908.73
2018-06-29T06:49:40.504Z,98908.38
2018-06-29T06:52:09.321Z,98908.48
2018-06-29T06:54:38.098Z,98919.77
2018-06-29T06:57:06.887Z,98903.16
2018-06-29T06:59:35.623Z,98921.20
2018-06-29T07:02:04.459Z,98889.74
2018-06-29T07:04:33.136Z,98890.34
2018-06-29T07:07:01.865Z,98886.77
2018-06-29T07:09:30.638Z,98890.33
2018-06-29T07:11:59.418Z,98902.43
2018-06-29T07:14:28.089Z,98912.89
2018-06-29T07:16:56.762Z,98906.48
2018-06-29T07:19:25.471Z,98917.96
2018-06-29T07:21:54.169Z,98907.09
2018-06-29T07:24:23.191Z,98917.22
2018-06-29T07:26:51.841Z,98920.50
2018-06-29T07:29:20.538Z,98914.55
2018-06-29T07:31:49.188Z,98907.25
2018-06-29T07:34:17.969Z,98926.10
2018-06-29T07:36:46.915Z,98923.86
2018-06-29T07:39:15.674Z,98917.84
2018-06-29T07:41:44.883Z,98919.05
2018-06-29T07:44:13.561Z,98933.27
2018-06-29T07:46:42.267Z,98921.87
2018-06-29T07:49:10.918Z,98920.05
2018-06-29T07:51:39.601Z,98927.36
2018-06-29T07:54:08.245Z,98940.82
2018-06-29T07:56:36.965Z,98931.10
2018-06-29T07:59:05.689Z,98928.84
2018-06-29T08:01:34.382Z,98922.74
2018-06-29T08:04:03.067Z,98927.20
2018-06-29T08:06:31.754Z,98921.37
2018-06-29T08:09:00.430Z,98932.66
2018-06-29T08:11:29.154Z,98937.25
2018-06-29T08:13:57.807Z,98937.27
2018-06-29T08:16:26.466Z,98920.78
2018-06-29T08:18:55.187Z,98934.19
2018-06-29T08:21:23.868Z,98924.48
2018-06-29T08:23:52.573Z,98923.91
2018-06-29T08:26:23.898Z,98924.53
2018-06-29T08:28:52.847Z,98930.41
2018-06-29T08:31:21.583Z,98918.89
2018-06-29T08:33:50.893Z,98933.00
2018-06-29T08:36:19.588Z,98928.09
2018-06-29T08:38:48.336Z,98944.88
2018-06-29T08:41:17.112Z,98937.64
2018-06-29T08:43:45.809Z,98938.03
2018-06-29T08:46:14.473Z,98922.05
2018-06-29T08:48:43.154Z,98927.23
2018-06-29T08:51:11.911Z,98919.25
2018-06-29T08:53:40.525Z,98929.50
2018-06-29T08:56:09.278Z,98912.48
2018-06-29T08:58:37.911Z,98924.29
2018-06-29T09:01:06.926Z,98926.98
2018-06-29T09:03:35.561Z,98921.77
2018-06-29T09:06:04.265Z,98912.73
2018-06-29T09:08:33.009Z,98918.25
2018-06-29T09:11:01.814Z,98904.37
2018-06-29T09:13:30.432Z,98898.59
2018-06-29T09:15:59.251Z,98898.36
2018-06-29T09:18:27.940Z,98902.48
2018-06-29T09:20:56.631Z,98902.27
2018-06-29T09:23:25.274Z,98902.00
2018-06-29T09:25:53.948Z,98910.48
2018-06-29T09:28:22.646Z,98915.71
2018-06-29T09:30:51.273Z,98926.16
2018-06-29T09:33:19.977Z,98911.29
2018-06-29T09:35:48.668Z,98908.12
2018-06-29T09:38:17.328Z,98918.14
2018-06-29T09:40:46.085Z,98909.28
2018-06-29T09:43:14.858Z,98913.95
2018-06-29T09:45:43.659Z,98925.12
2018-06-29T09:48:12.390Z,98934.17
2018-06-29T09:50:41.126Z,98919.55
2018-06-29T09:53:09.805Z,98909.91
2018-06-29T09:55:38.509Z,98906.84
2018-06-29T09:58:07.200Z,98910.39
2018-06-29T10:00:35.890Z,98912.63
2018-06-29T10:03:04.625Z,98913.64
2018-06-29T10:05:33.301Z,98916.64
2018-06-29T10:08:02.051Z,98912.30
2018-06-29T10:10:30.763Z,98917.08
2018-06-29T10:12:59.570Z,98919.09
2018-06-29T10:15:28.234Z,98934.80
2018-06-29T10:17:57.821Z,98918.18
2018-06-29T10:20:26.553Z,98913.56
2018-06-29T10:22:55.290Z,98908.02
2018-06-29T10:25:24.244Z,98913.95
2018-06-29T10:27:52.851Z,98912.89
2018-06-29T10:30:21.533Z,98912.61
2018-06-29T10:32:50.250Z,98907.02
2018-06-29T10:35:18.895Z,98907.72
2018-06-29T10:37:47.556Z,98932.69
2018-06-29T10:40:16.274Z,98916.31
2018-06-29T10:42:44.983Z,98909.52
2018-06-29T10:45:13.672Z,98901.05
2018-06-29T10:47:43.601Z,98900.48
2018-06-29T10:50:12.406Z,98894.42
2018-06-29T10:52:41.467Z,98898.94
2018-06-29T10:55:10.212Z,98899.41
2018-06-29T10:57:38.966Z,98894.88
2018-06-29T11:00:07.733Z,98889.36
2018-06-29T11:02:36.417Z,98890.93
2018-06-29T11:05:05.315Z,98886.04
2018-06-29T11:07:34.025Z,98892.86
2018-06-29T11:10:02.769Z,98895.53
2018-06-29T11:12:31.541Z,98885.41
2018-06-29T11:15:00.279Z,98881.02
2018-06-29T11:20:02.738Z,98880.50
2018-06-29T11:22:31.470Z,98873.64
2018-06-29T11:25:00.933Z,98859.59
2018-06-29T11:27:29.633Z,98866.20
2018-06-29T11:29:59.378Z,98863.08
2018-06-29T11:32:28.118Z,98857.52
2018-06-29T11:34:56.785Z,98857.84
2018-06-29T11:37:25.570Z,98860.66
2018-06-29T11:39:54.349Z,98855.51
2018-06-29T11:42:22.985Z,98861.62
2018-06-29T11:44:51.879Z,98860.76
2018-06-29T11:47:20.557Z,98850.73
2018-06-29T11:49:49.256Z,98870.80
2018-06-29T11:52:17.934Z,98882.59
2018-06-29T11:54:46.622Z,98867.23
2018-06-29T11:57:15.303Z,98861.55
2018-06-29T11:59:44.036Z,98865.41
2018-06-29T12:02:12.801Z,98864.17
2018-06-29T12:04:41.429Z,98862.59
2018-06-29T12:07:10.157Z,98861.67
2018-06-29T12:09:38.785Z,98855.27
2018-06-29T12:12:07.429Z,98853.16
2018-06-29T12:14:36.131Z,98852.15
2018-06-29T12:17:04.772Z,98870.73
2018-06-29T12:19:33.504Z,98857.73
2018-06-29T12:22:02.770Z,98850.92
2018-06-29T12:24:31.474Z,98843.08
2018-06-29T12:27:00.415Z,98849.38
2018-06-29T12:29:29.166Z,98856.41
2018-06-29T12:31:57.898Z,98847.67
2018-06-29T12:34:26.671Z,98837.19
2018-06-29T12:36:55.365Z,98839.27
2018-06-29T12:39:24.059Z,98859.53
2018-06-29T12:41:52.793Z,98844.40
2018-06-29T12:44:21.613Z,98866.64
2018-06-29T12:46:50.399Z,98848.89
2018-06-29T12:49:19.094Z,98840.67
2018-06-29T12:51:47.878Z,98865.52
2018-06-29T12:54:16.598Z,98861.46
2018-06-29T12:56:45.355Z,98859.67
2018-06-29T12:59:14.393Z,98848.69
2018-06-29T13:01:43.134Z,98857.59
2018-06-29T13:04:11.846Z,98851.45
2018-06-29T13:06:40.537Z,98852.16
2018-06-29T13:09:10.491Z,98853.15
2018-06-29T13:11:39.109Z,98852.01
2018-06-29T13:14:07.822Z,98847.75
2018-06-29T13:16:36.674Z,98850.68
2018-06-29T13:19:05.389Z,98843.66
2018-06-29T13:21:34.050Z,98851.12
2018-06-29T13:24:03.662Z,98844.64
2018-06-29T13:26:32.391Z,98838.91
2018-06-29T13:29:01.980Z,98843.02
2018-06-29T13:31:30.689Z,98839.36
2018-06-29T13:33:59.459Z,98839.63
2018-06-29T13:36:28.221Z,98832.77
2018-06-29T13:38:58.603Z,98836.02
2018-06-29T13:41:27.227Z,98833.75
2018-06-29T13:43:55.971Z,98831.81
2018-06-29T13:46:24.596Z,98840.90
2018-06-29T13:48:53.890Z,98837.04
2018-06-29T13:51:22.591Z,98837.18
2018-06-29T13:53:51.540Z,98839.81
2018-06-29T13:56:20.173Z,98842.07
2018-06-29T13:58:49.091Z,98846.44
2018-06-29T14:01:17.874Z,98847.26
2018-06-29T14:03:46.531Z,98853.47
2018-06-29T14:06:15.318Z,98852.83
2018-06-29T14:08:43.931Z,98848.98
2018-06-29T14:11:12.622Z,98840.91
2018-06-29T14:13:41.272Z,98853.39
2018-06-29T14:16:09.957Z,98849.31
2018-06-29T14:18:39.066Z,98852.02
2018-06-29T14:21:07.842Z,98846.14
2018-06-29T14:23:36.467Z,98840.17
2018-06-29T14:26:05.829Z,98845.96
2018-06-29T14:28:34.512Z,98840.44
2018-06-29T14:31:04.553Z,98832.77
2018-06-29T14:33:33.259Z,98832.98
2018-06-29T14:36:01.908Z,98838.28
2018-06-29T14:38:30.654Z,98847.75
2018-06-29T14:40:59.418Z,98835.52
2018-06-29T14:43:28.066Z,98835.44
2018-06-29T14:45:56.741Z,98832.41
2018-06-29T14:48:26.252Z,98827.11
2018-06-29T14:50:54.881Z,98823.25
2018-06-29T14:53:23.546Z,98830.56
2018-06-29T14:55:52.203Z,98829.68
2018-06-29T14:58:20.951Z,98828.69
2018-06-29T15:00:49.600Z,98825.82
2018-06-29T15:03:18.356Z,98826.89
2018-06-29T15:05:46.989Z,98830.77
2018-06-29T15:08:15.633Z,98831.73
2018-06-29T15:10:44.244Z,98823.19
2018-06-29T15:13:12.925Z,98822.34
2018-06-29T15:15:41.619Z,98821.74
2018-06-29T15:18:10.260Z,98825.32
2018-06-29T15:20:38.901Z,98818.27
2018-06-29T15:23:07.654Z,98825.81
2018-06-29T15:25:36.557Z,98819.45
2018-06-29T15:28:06.322Z,98825.61
2018-06-29T15:30:34.925Z,98840.76
2018-06-29T15:33:03.552Z,98828.06
2018-06-29T15:35:32.192Z,98821.80
2018-06-29T15:38:00.874Z,98828.83
2018-06-29T15:40:29.505Z,98833.72
2018-06-29T15:42:58.155Z,98832.42
2018-06-29T15:45:26.924Z,98837.79
2018-06-29T15:47:56.459Z,98835.34
2018-06-29T15:50:25.180Z,98833.42
2018-06-29T15:52:54.754Z,98835.41
2018-06-29T15:55:23.552Z,98835.09
2018-06-29T15:57:52.232Z,98835.09
2018-06-29T16:00:20.917Z,98838.39
2018-06-29T16:02:49.611Z,98845.91
2018-06-29T16:05:18.218Z,98842.83
2018-06-29T16:07:46.956Z,98844.06
2018-06-29T16:10:15.591Z,98850.45
2018-06-29T16:12:44.246Z,98856.03
2018-06-29T16:15:12.905Z,98864.67
2018-06-29T16:17:41.570Z,98867.55
2018-06-29T16:20:10.338Z,98855.95
2018-06-29T16:22:39.013Z,98853.46
2018-06-29T16:25:09.019Z,98855.33
2018-06-29T16:27:37.666Z,98858.30
2018-06-29T16:30:06.586Z,98853.91
2018-06-29T16:32:35.280Z,98847.08
2018-06-29T16:35:03.961Z,98852.34
2018-06-29T16:37:32.613Z,98848.38
2018-06-29T16:40:01.248Z,98841.31
2018-06-29T16:42:29.953Z,98836.61
2018-06-29T16:44:58.623Z,98835.99
2018-06-29T16:47:27.285Z,98836.10
2018-06-29T16:49:55.938Z,98842.41
2018-06-29T16:52:24.625Z,98838.62
2018-06-29T16:54:53.287Z,98829.78
2018-06-29T16:57:21.930Z,98826.84
2018-06-29T16:59:50.634Z,98825.28
2018-06-29T17:02:19.275Z,98824.56
2018-06-29T17:04:47.982Z,98823.80
2018-06-29T17:07:16.735Z,98832.01
2018-06-29T17:09:45.452Z,98834.98
2018-06-29T17:12:14.245Z,98838.18
2018-06-29T17:14:42.894Z,98838.40
2018-06-29T17:17:11.509Z,98838.66
2018-06-29T17:22:14.274Z,98844.02
2018-06-29T17:24:44.425Z,98848.16
2018-06-29T17:27:13.085Z,98864.61
2018-06-29T17:29:41.797Z,98856.88
2018-06-29T17:32:11.185Z,98857.05
2018-06-29T17:34:39.903Z,98855.80
2018-06-29T17:37:08.644Z,98866.64
2018-06-29T17:39:37.345Z,98863.27
2018-06-29T17:42:06.051Z,98864.73
2018-06-29T17:44:34.710Z,98869.12
2018-06-29T17:47:03.385Z,98867.33
2018-06-29T17:49:32.074Z,98876.94
2018-06-29T17:52:00.767Z,98883.86
2018-06-29T17:54:29.466Z,98886.51
2018-06-29T17:56:58.148Z,98880.19
2018-06-29T17:59:26.758Z,98881.12
2018-06-29T18:01:55.426Z,98881.18
2018-06-29T18:04:24.094Z,98884.41
2018-06-29T18:06:52.701Z,98889.77
2018-06-29T18:09:21.378Z,98895.74
2018-06-29T18:11:50.081Z,98896.79
2018-06-29T18:14:18.653Z,98900.45
2018-06-29T18:16:47.344Z,98905.26
2018-06-29T18:19:15.989Z,98907.31
2018-06-29T18:21:44.695Z,98902.44
2018-06-29T18:24:13.348Z,98896.39
2018-06-29T18:26:42.024Z,98902.22
2018-06-29T18:29:11.156Z,98909.92
2018-06-29T18:31:39.841Z,98910.16
2018-06-29T18:34:08.551Z,98901.63
2018-06-29T18:49:45.794Z,98921.78
2018-06-29T18:52:14.513Z,98918.13
2018-06-29T18:54:43.219Z,98923.92
2018-06-29T18:57:12.406Z,98929.14
2018-06-29T18:59:41.058Z,98933.27
2018-06-29T19:02:09.893Z,98949.72
2018-06-29T19:14:18.858Z,98943.42
2018-06-29T19:16:47.633Z,98946.03
2018-06-29T19:19:16.399Z,98950.73
2018-06-29T19:21:45.467Z,98953.11
2018-06-29T19:24:14.353Z,98957.58
2018-06-29T19:26:43.098Z,98959.81
2018-06-29T19:29:12.483Z,98962.20
2018-06-29T19:31:41.248Z,98964.31
2018-06-29T19:34:09.986Z,98964.37
2018-06-29T19:36:38.678Z,98961.15
2018-06-29T19:39:08.777Z,98966.70
2018-06-29T19:41:38.074Z,98967.41
2018-06-29T19:44:06.836Z,98978.42
2018-06-29T19:46:35.596Z,98973.25
2018-06-29T19:49:04.335Z,98970.52
2018-06-29T19:51:33.049Z,98975.94
2018-06-29T19:54:01.866Z,98978.39
2018-06-29T19:56:30.762Z,98979.91
2018-06-29T19:58:59.543Z,98981.42
2018-06-29T20:01:28.406Z,98982.52
2018-06-29T20:03:57.112Z,98991.58
2018-06-29T20:06:25.959Z,98987.94
2018-06-29T20:08:55.377Z,98983.53
2018-06-29T20:11:24.140Z,98987.81
2018-06-29T20:13:53.079Z,98984.92
2018-06-29T20:16:23.755Z,98987.51
2018-06-29T20:18:53.698Z,98988.56
2018-06-29T20:21:22.639Z,98988.83
2018-06-29T20:23:52.711Z,98990.47
2018-06-29T20:26:21.765Z,98999.12
2018-06-29T20:28:50.538Z,98999.58
2018-06-29T20:31:24.007Z,99004.12
2018-06-29T20:33:52.763Z,99008.77
2018-06-29T20:36:21.600Z,99009.91
2018-06-29T20:38:50.496Z,99004.53
2018-06-29T20:41:19.142Z,99014.98
2018-06-29T20:43:47.839Z,99019.38
2018-06-29T20:46:17.227Z,99012.36
2018-06-29T20:48:45.950Z,99017.69
2018-06-29T20:51:15.534Z,99013.52
2018-06-29T20:53:44.306Z,99020.42
2018-06-29T20:56:13.583Z,99020.08
2018-06-29T20:58:42.266Z,99027.34
2018-06-29T21:01:11.061Z,99030.44
2018-06-29T21:03:39.791Z,99032.58
2018-06-29T21:06:08.529Z,99023.84
2018-06-29T21:08:37.552Z,99026.91
2018-06-29T21:11:06.342Z,99025.03
2018-06-29T21:13:35.007Z,99031.59
2018-06-29T21:16:03.710Z,99022.05
2018-06-29T21:18:32.503Z,99037.06
2018-06-29T21:21:01.314Z,99021.01
2018-06-29T21:23:30.045Z,99029.95
2018-06-29T21:25:58.785Z,99032.41
2018-06-29T21:28:27.542Z,99024.70
2018-06-29T21:30:56.274Z,99024.60
2018-06-29T21:33:25.857Z,99024.40
2018-06-29T21:35:54.550Z,99042.16
2018-06-29T21:38:23.227Z,99035.01
2018-06-29T21:40:52.140Z,99041.52
2018-06-29T21:43:20.809Z,99040.47
2018-06-29T21:45:49.478Z,99041.00
2018-06-29T21:48:18.183Z,99033.85
2018-06-29T21:50:46.920Z,99036.89
2018-06-29T21:53:16.039Z,99048.08
2018-06-29T21:55:44.751Z,99037.67
2018-06-29T21:58:13.459Z,99035.20
2018-06-29T22:00:44.282Z,99039.48
2018-06-29T22:05:47.787Z,99034.40
2018-06-29T22:08:17.042Z,99034.66
2018-06-29T22:10:45.748Z,99034.86
2018-06-29T22:13:14.683Z,99031.42
2018-06-29T22:15:43.306Z,99027.72
2018-06-29T22:18:12.010Z,99033.98
2018-06-29T22:20:40.626Z,99028.16
2018-06-29T22:23:09.290Z,99018.08
2018-06-29T22:25:37.923Z,99023.45
2018-06-29T22:28:06.755Z,99017.67
2018-06-29T22:30:35.386Z,99016.58
2018-06-29T22:33:04.011Z,99010.56
2018-06-29T22:35:32.641Z,99013.32
2018-06-29T22:38:01.256Z,99012.77
2018-06-29T22:40:29.912Z,99020.22
2018-06-29T22:42:58.602Z,99015.77
2018-06-29T22:45:27.333Z,99012.99
2018-06-29T22:47:55.950Z,99008.15
2018-06-29T22:50:24.571Z,99009.45
2018-06-29T22:52:53.213Z,99013.94
2018-06-29T22:55:21.794Z,99013.01
2018-06-29T22:57:50.442Z,99008.00
2018-06-29T23:00:19.692Z,99014.77
2018-06-29T23:02:48.340Z,99011.86
2018-06-29T23:05:17.327Z,99007.89
2018-06-29T23:07:45.918Z,99002.17
2018-06-29T23:10:14.550Z,99008.13
2018-06-29T23:12:43.165Z,99003.09
2018-06-29T23:15:11.864Z,98999.57
2018-06-29T23:17:40.508Z,98998.55
2018-06-29T23:20:15.128Z,99000.05
2018-06-29T23:22:43.747Z,98999.33
2018-06-29T23:25:12.399Z,99005.32
2018-06-29T23:27:40.994Z,99004.42
2018-06-29T23:30:09.687Z,99006.88
2018-06-29T23:32:38.310Z,98996.21
2018-06-29T23:35:07.026Z,98997.31
2018-06-29T23:37:35.687Z,99003.44
2018-06-29T23:40:04.787Z,99000.20
2018-06-29T23:42:33.446Z,99008.06
2018-06-29T23:45:02.048Z,99002.31
2018-06-29T23:47:30.693Z,99002.02
2018-06-29T23:49:59.369Z,98999.66
2018-06-29T23:52:28.024Z,98997.57
2018-06-29T23:54:56.650Z,99008.75
2018-06-29T23:57:25.285Z,99008.58
2018-06-29T23:59:53.936Z,99014.50
